ICTK1: Arkansas R At Wichita, KS

                                SHEF ID:       ICTK1     ARKANSAS R AT WICHITA, KS
STATION TYPE:
Regulating: Stage = 12.00, Flow = 10825

PRECIP STAGE RIV-FLOW BAT-LOAD
in ft cfs volt
Ccp-Rev Ccp-Rev Ccp-Rev Ccp-Rev
(America/Chicago)
03/12 00:00 0.00 3.93 608 12.40
03/12 01:00 0.00 3.88 582 12.37
03/12 02:00 0.00 3.85 567 12.36
03/12 03:00 0.00 3.80 543 12.34
03/12 04:00 0.00 3.76 524 12.31
03/12 05:00 0.00 3.73 509 12.28
03/12 06:00 0.00 3.70 495 12.24
03/12 07:00 0.00 3.68 486 12.21
03/12 08:00 0.00 3.65 472 12.17
03/12 09:00 0.00 3.66 477 13.76
03/12 10:00 0.00 3.61 454 13.59
03/12 11:00 0.00 3.61 454 13.58
03/12 12:00 0.00 3.58 441 13.59
03/12 13:00 0.00 3.56 432 13.65
03/12 14:00 0.00 3.56 432 13.65
03/12 15:00 0.00 3.53 419 13.61
03/12 16:00 0.00 3.53 419 13.55
03/12 17:00 0.00 3.52 415 13.45
03/12 18:00 0.00 3.51 410 13.49
03/12 19:00 0.00 3.51 410 13.42
03/12 20:00 0.00 3.49 402 12.89
03/12 21:00 0.00 3.48 398 12.50
03/12 22:00 0.00 3.47 394 12.46
03/12 23:00 0.00 3.45 385 12.43
Data processed at Fri 13Mar2026 04:47 GMT

NOTICE: If you are parsing this page

Please convert to using our Data API. Starting early 2026 we will be migrating to: https://water.usace.army.mil with modern pages rendered in JavaScript. When this migration completes you will no longer be able to scrape this page! CWMSDataAPI (CDA)

Timeseries IDs (TSIDs)

TSIDs used from left to right in the data table
WICH.Precip-Inc.Total.1Hour.1Hour.Ccp-Rev
WICH.Stage.Inst.1Hour.0.Ccp-Rev
WICH.Flow.Inst.1Hour.0.Ccp-Rev
WICH.Volt-Battery Load.Inst.1Hour.0.Ccp-Rev

                            

All information presented herein is the property of the government of the United States of America and may be revised or deleted at any time without prior notice. Dissemination of this information without the expressed written consent of the Public Affairs Office, Tulsa District U.S. Army Corps of Engineers is strictly prohibited. These data are gathered electronically and, as presented, have NOT undergone any form of quality control. These data are NOT guaranteed to be valid or correct.